SAWG/RGL METAR and TAF weather

Enter ICAO airport designator
Station Type Date Time Source
SAWG METAR 2022/12/10 01:00 UTC NOAA

SAWG 100100Z 20013KT CAVOK 12/00 Q1004


Station Type Date Time Source
SAWG Decoded METAR 2022/12/10 01:00 UTC NOAA

Rio Gallegos Aerodrome, Argentina (SAWG) 51-37S 069-17W 19M
Dec 09, 2022 - 08:00 PM EST / 2022.12.10 0100 UTC
Wind: from the SSW (200 degrees) at 15 MPH (13 KT):0
Visibility: greater than 7 mile(s):0
Temperature: 53 F (12 C)
Dew Point: 32 F (0 C)
Relative Humidity: 43%
Pressure (altimeter): 29.65 in. Hg (1004 hPa)
ob: SAWG 100100Z 20013KT CAVOK 12/00 Q1004
cycle: 1

Station Type Date Time Source
SAWG TAF 2022/12/09 18:18 UTC NOAA

TAF SAWG 091700Z 0918/1018 22025KT 9999 BKN025 TX16/0919Z TN06/1010Z
BECMG 1000/1002 23010KT SCT030

Example: see airport list